createdAt,value
2018-05-13T00:00:02.919Z,0
2018-05-13T00:01:03.013Z,0
2018-05-13T00:02:02.904Z,0
2018-05-13T00:03:03.024Z,0
2018-05-13T00:04:02.992Z,0
2018-05-13T00:05:03.011Z,0
2018-05-13T00:06:02.928Z,0
2018-05-13T00:07:02.970Z,0
2018-05-13T00:08:02.996Z,0
2018-05-13T00:09:03.023Z,0
2018-05-13T00:10:02.916Z,0
2018-05-13T00:11:03.028Z,0
2018-05-13T00:12:02.931Z,0
2018-05-13T00:13:02.909Z,0
2018-05-13T00:14:02.983Z,0
2018-05-13T00:15:03.054Z,0
2018-05-13T00:16:02.921Z,0
2018-05-13T00:17:03.016Z,0
2018-05-13T00:18:02.920Z,0
2018-05-13T00:19:02.971Z,0
2018-05-13T00:20:03.059Z,0
2018-05-13T00:21:02.930Z,0
2018-05-13T00:22:03.023Z,0
2018-05-13T00:23:03.007Z,0
2018-05-13T00:24:02.963Z,0
2018-05-13T00:25:02.934Z,0
2018-05-13T00:26:02.931Z,0
2018-05-13T00:27:02.940Z,0
2018-05-13T00:28:02.937Z,0
2018-05-13T00:29:02.937Z,0
2018-05-13T00:30:03.010Z,0
2018-05-13T00:31:02.998Z,0
2018-05-13T00:32:03.003Z,0
2018-05-13T00:33:03.068Z,0
2018-05-13T00:34:03.033Z,0
2018-05-13T00:35:02.927Z,0
2018-05-13T00:36:02.968Z,0
2018-05-13T00:37:02.969Z,0
2018-05-13T00:38:03.011Z,0
2018-05-13T00:39:03.023Z,0
2018-05-13T00:40:03.012Z,0
2018-05-13T00:41:02.944Z,0
2018-05-13T00:42:02.944Z,0
2018-05-13T00:43:02.944Z,0
2018-05-13T00:44:02.944Z,0
2018-05-13T00:45:02.963Z,0
2018-05-13T00:46:03.024Z,0
2018-05-13T00:47:02.905Z,0
2018-05-13T00:48:03.020Z,0
2018-05-13T00:49:02.947Z,0
2018-05-13T00:50:02.949Z,0
2018-05-13T00:51:02.984Z,0
2018-05-13T00:52:02.980Z,0
2018-05-13T00:53:03.023Z,0
2018-05-13T00:54:03.044Z,0
2018-05-13T00:55:02.986Z,0
2018-05-13T00:56:03.020Z,0
2018-05-13T00:57:03.049Z,0
2018-05-13T00:58:02.938Z,0
2018-05-13T00:59:03.048Z,0
2018-05-13T01:00:02.930Z,0
2018-05-13T01:01:03.049Z,0
2018-05-13T01:02:02.963Z,0
2018-05-13T01:03:03.088Z,0
2018-05-13T01:04:03.053Z,0
2018-05-13T01:05:03.024Z,0
2018-05-13T01:06:02.996Z,0
2018-05-13T01:07:03.059Z,0
2018-05-13T01:08:02.956Z,0
2018-05-13T01:09:03.029Z,0
2018-05-13T01:10:03.074Z,0
2018-05-13T01:11:03.015Z,0
2018-05-13T01:12:02.901Z,0
2018-05-13T01:13:02.935Z,0
2018-05-13T01:14:02.923Z,0
2018-05-13T01:15:02.993Z,0
2018-05-13T01:16:02.925Z,0
2018-05-13T01:17:03.027Z,0
2018-05-13T01:18:02.979Z,0
2018-05-13T01:19:02.905Z,0
2018-05-13T01:20:03.023Z,0
2018-05-13T01:21:03.011Z,0
2018-05-13T01:22:02.975Z,0
2018-05-13T01:23:02.977Z,0
2018-05-13T01:24:02.967Z,0
2018-05-13T01:25:03.079Z,0
2018-05-13T01:26:03.101Z,0
2018-05-13T01:27:03.022Z,0
2018-05-13T01:28:03.040Z,0
2018-05-13T01:29:02.981Z,0
2018-05-13T01:30:03.071Z,0
2018-05-13T01:31:02.938Z,0
2018-05-13T01:32:02.978Z,0
2018-05-13T01:33:02.978Z,0
2018-05-13T01:34:03.055Z,0
2018-05-13T01:35:02.979Z,0
2018-05-13T01:36:03.051Z,0
2018-05-13T01:37:02.999Z,0
2018-05-13T01:38:02.994Z,0
2018-05-13T01:39:03.057Z,0
2018-05-13T01:40:02.985Z,0
2018-05-13T01:41:03.035Z,0
2018-05-13T01:42:03.049Z,0
2018-05-13T01:43:02.972Z,0
2018-05-13T01:44:03.081Z,0
2018-05-13T01:45:02.997Z,0
2018-05-13T01:46:03.000Z,0
2018-05-13T01:47:03.032Z,0
2018-05-13T01:48:03.015Z,0
2018-05-13T01:49:03.094Z,0
2018-05-13T01:50:02.977Z,0
2018-05-13T01:51:03.068Z,0
2018-05-13T01:52:03.038Z,0
2018-05-13T01:53:03.099Z,0
2018-05-13T01:54:02.975Z,0
2018-05-13T01:55:03.059Z,0
2018-05-13T01:56:03.059Z,0
2018-05-13T01:57:03.087Z,0
2018-05-13T01:58:03.028Z,0
2018-05-13T01:59:02.993Z,0
2018-05-13T02:00:03.125Z,0
2018-05-13T02:01:03.023Z,0
2018-05-13T02:02:03.091Z,0
2018-05-13T02:03:03.086Z,0
2018-05-13T02:04:03.040Z,0
2018-05-13T02:05:03.070Z,0
2018-05-13T02:06:03.063Z,0
2018-05-13T02:07:02.986Z,0
2018-05-13T02:08:03.129Z,0
2018-05-13T02:09:03.079Z,0
2018-05-13T02:10:03.025Z,0
2018-05-13T02:11:03.063Z,0
2018-05-13T02:12:02.992Z,0
2018-05-13T02:13:03.070Z,0
2018-05-13T02:14:02.993Z,0
2018-05-13T02:15:02.998Z,0
2018-05-13T02:16:03.066Z,0
2018-05-13T02:17:02.993Z,0
2018-05-13T02:18:02.998Z,0
2018-05-13T02:19:03.068Z,0
2018-05-13T02:20:03.012Z,0
2018-05-13T02:21:03.078Z,0
2018-05-13T02:22:03.091Z,0
2018-05-13T02:23:03.010Z,0
2018-05-13T02:24:03.014Z,0
2018-05-13T02:25:03.008Z,0
2018-05-13T02:26:03.013Z,0
2018-05-13T02:27:03.084Z,0
2018-05-13T02:28:03.014Z,0
2018-05-13T02:29:03.012Z,0
2018-05-13T02:30:03.015Z,0
2018-05-13T02:31:03.080Z,0
2018-05-13T02:32:03.060Z,0
2018-05-13T02:33:03.144Z,0
2018-05-13T02:34:03.050Z,0
2018-05-13T02:35:03.049Z,0
2018-05-13T02:36:03.050Z,0
2018-05-13T02:37:03.088Z,0
2018-05-13T02:38:03.012Z,0
2018-05-13T02:39:03.102Z,0
2018-05-13T02:40:03.087Z,0
2018-05-13T02:41:03.029Z,0
2018-05-13T02:42:03.099Z,0
2018-05-13T02:43:03.099Z,0
2018-05-13T02:44:03.128Z,0
2018-05-13T02:45:03.097Z,4
2018-05-13T02:46:03.011Z,4
2018-05-13T02:47:03.133Z,4
2018-05-13T02:48:03.015Z,0
2018-05-13T02:49:03.095Z,0
2018-05-13T02:50:03.066Z,4
2018-05-13T02:51:03.027Z,4
2018-05-13T02:52:03.027Z,4
2018-05-13T02:53:03.104Z,4
2018-05-13T02:54:03.029Z,4
2018-05-13T02:55:03.029Z,8
2018-05-13T02:56:03.034Z,8
2018-05-13T02:57:02.997Z,12
2018-05-13T02:58:03.107Z,12
2018-05-13T02:59:03.104Z,12
2018-05-13T03:00:03.036Z,12
2018-05-13T03:01:03.110Z,12
2018-05-13T03:02:03.039Z,16
2018-05-13T03:03:03.034Z,20
2018-05-13T03:04:03.113Z,24
2018-05-13T03:05:03.113Z,28
2018-05-13T03:06:03.038Z,32
2018-05-13T03:07:03.036Z,36
2018-05-13T03:08:03.048Z,44
2018-05-13T03:09:03.043Z,52
2018-05-13T03:10:03.073Z,60
2018-05-13T03:11:03.043Z,64
2018-05-13T03:12:03.043Z,72
2018-05-13T03:13:03.043Z,88
2018-05-13T03:14:03.118Z,96
2018-05-13T03:15:03.043Z,120
2018-05-13T03:16:03.117Z,140
2018-05-13T03:17:03.043Z,168
2018-05-13T03:18:03.086Z,192
2018-05-13T03:19:03.112Z,220
2018-05-13T03:20:03.046Z,248
2018-05-13T03:21:02.915Z,276
2018-05-13T03:22:03.163Z,312
2018-05-13T03:23:03.080Z,348
2018-05-13T03:24:03.142Z,392
2018-05-13T03:25:03.116Z,440
2018-05-13T03:26:03.023Z,492
2018-05-13T03:27:03.056Z,544
2018-05-13T03:28:03.177Z,596
2018-05-13T03:29:03.183Z,644
2018-05-13T03:30:03.132Z,700
2018-05-13T03:31:03.148Z,752
2018-05-13T03:32:03.055Z,804
2018-05-13T03:33:03.089Z,856
2018-05-13T03:34:03.081Z,900
2018-05-13T03:35:03.127Z,952
2018-05-13T03:36:03.130Z,1004
2018-05-13T03:37:03.129Z,1104
2018-05-13T03:38:03.130Z,1172
2018-05-13T03:39:03.135Z,1252
2018-05-13T03:40:03.059Z,1348
2018-05-13T03:41:03.059Z,1460
2018-05-13T03:42:03.083Z,1580
2018-05-13T03:43:03.134Z,1700
2018-05-13T03:44:03.130Z,1836
2018-05-13T03:45:03.071Z,1960
2018-05-13T03:46:03.144Z,2100
2018-05-13T03:47:03.093Z,2240
2018-05-13T03:48:03.082Z,2388
2018-05-13T03:49:03.133Z,2540
2018-05-13T03:50:03.061Z,2704
2018-05-13T03:51:03.133Z,2872
2018-05-13T03:52:03.056Z,3032
2018-05-13T03:53:03.161Z,3196
2018-05-13T03:54:03.115Z,3360
2018-05-13T03:55:03.073Z,3532
2018-05-13T03:56:03.138Z,3716
2018-05-13T03:57:03.054Z,3888
2018-05-13T03:58:03.172Z,4056
2018-05-13T03:59:03.159Z,4228
2018-05-13T04:00:03.141Z,4408
2018-05-13T04:01:03.113Z,4536
2018-05-13T04:02:03.176Z,4708
2018-05-13T04:03:03.115Z,4868
2018-05-13T04:04:03.097Z,5028
2018-05-13T04:05:03.117Z,5180
2018-05-13T04:06:03.142Z,5340
2018-05-13T04:07:03.066Z,5516
2018-05-13T04:08:03.063Z,5704
2018-05-13T04:09:03.068Z,5888
2018-05-13T04:10:03.103Z,6084
2018-05-13T04:11:03.119Z,6264
2018-05-13T04:12:03.080Z,6420
2018-05-13T04:13:03.079Z,6576
2018-05-13T04:14:03.109Z,6728
2018-05-13T04:15:03.079Z,6876
2018-05-13T04:16:03.086Z,7012
2018-05-13T04:17:03.088Z,7160
2018-05-13T04:18:03.154Z,7292
2018-05-13T04:19:03.086Z,7432
2018-05-13T04:20:03.148Z,7580
2018-05-13T04:21:03.089Z,7704
2018-05-13T04:22:03.084Z,7772
2018-05-13T04:23:03.154Z,7792
2018-05-13T04:24:03.090Z,7764
2018-05-13T04:25:03.160Z,7604
2018-05-13T04:26:03.159Z,7432
2018-05-13T04:27:03.052Z,7416
2018-05-13T04:28:03.088Z,7440
2018-05-13T04:29:03.093Z,7504
2018-05-13T04:30:03.169Z,7596
2018-05-13T04:31:03.098Z,7688
2018-05-13T04:32:03.078Z,7772
2018-05-13T04:33:03.158Z,7856
2018-05-13T04:34:03.195Z,7932
2018-05-13T04:35:03.071Z,7988
2018-05-13T04:36:03.082Z,8044
2018-05-13T04:37:03.115Z,8108
2018-05-13T04:38:03.201Z,8180
2018-05-13T04:39:03.135Z,8256
2018-05-13T04:40:03.182Z,8336
2018-05-13T04:41:03.167Z,8372
2018-05-13T04:42:03.164Z,8452
2018-05-13T04:43:03.189Z,8504
2018-05-13T04:44:03.164Z,8584
2018-05-13T04:45:03.190Z,8656
2018-05-13T04:46:03.143Z,8736
2018-05-13T04:47:03.207Z,8828
2018-05-13T04:48:03.070Z,8924
2018-05-13T04:49:03.113Z,9040
2018-05-13T04:50:03.238Z,9156
2018-05-13T04:51:03.136Z,9280
2018-05-13T04:52:03.105Z,9420
2018-05-13T04:53:03.173Z,9552
2018-05-13T04:54:03.143Z,9668
2018-05-13T04:55:03.107Z,9764
2018-05-13T04:56:03.110Z,10400
2018-05-13T04:57:03.112Z,10468
2018-05-13T04:58:03.175Z,10492
2018-05-13T04:59:03.179Z,10504
2018-05-13T05:00:03.110Z,10532
2018-05-13T05:01:03.120Z,10600
2018-05-13T05:02:03.093Z,10700
2018-05-13T05:03:03.197Z,10828
2018-05-13T05:04:03.237Z,10828
2018-05-13T05:05:03.221Z,10824
2018-05-13T05:06:03.082Z,10852
2018-05-13T05:07:03.154Z,10928
2018-05-13T05:08:03.156Z,10992
2018-05-13T05:09:03.177Z,11108
2018-05-13T05:10:03.195Z,11248
2018-05-13T05:11:03.193Z,11432
2018-05-13T05:12:03.155Z,11608
2018-05-13T05:13:03.144Z,11756
2018-05-13T05:14:03.160Z,11892
2018-05-13T05:15:03.155Z,11980
2018-05-13T05:16:03.191Z,12080
2018-05-13T05:17:03.215Z,12320
2018-05-13T05:18:03.224Z,12652
2018-05-13T05:19:03.170Z,12908
2018-05-13T05:20:03.142Z,12960
2018-05-13T05:21:03.211Z,12628
2018-05-13T05:22:03.120Z,12304
2018-05-13T05:23:03.196Z,12360
2018-05-13T05:24:03.128Z,12836
2018-05-13T05:25:03.204Z,13632
2018-05-13T05:26:03.193Z,14672
2018-05-13T05:27:03.127Z,15948
2018-05-13T05:28:03.133Z,17384
2018-05-13T05:29:03.131Z,18868
2018-05-13T05:30:03.205Z,20240
2018-05-13T05:31:03.131Z,21632
2018-05-13T05:32:03.101Z,22336
2018-05-13T05:33:03.184Z,22944
2018-05-13T05:34:03.134Z,23392
2018-05-13T05:35:03.099Z,23744
2018-05-13T05:36:03.140Z,23904
2018-05-13T05:37:03.105Z,23936
2018-05-13T05:38:03.105Z,23936
2018-05-13T05:39:03.181Z,23840
2018-05-13T05:40:03.127Z,23776
2018-05-13T05:41:03.090Z,23712
2018-05-13T05:42:03.206Z,23392
2018-05-13T05:43:03.240Z,23008
2018-05-13T05:44:03.162Z,22752
2018-05-13T05:45:03.237Z,22560
2018-05-13T05:46:03.146Z,22560
2018-05-13T05:47:03.146Z,22656
2018-05-13T05:48:03.184Z,22848
2018-05-13T05:49:03.180Z,23264
2018-05-13T05:50:03.243Z,23872
2018-05-13T05:51:03.112Z,24544
2018-05-13T05:52:03.215Z,25408
2018-05-13T05:53:03.159Z,26688
2018-05-13T05:54:03.150Z,27680
2018-05-13T05:56:03.217Z,41824
2018-05-13T05:57:03.145Z,39008
2018-05-13T05:58:03.151Z,64352
2018-05-13T05:59:03.216Z,69728
2018-05-13T06:00:03.216Z,47328
2018-05-13T06:01:03.220Z,36480
2018-05-13T06:02:03.172Z,32896
2018-05-13T06:03:03.240Z,32416
2018-05-13T06:04:03.193Z,33152
2018-05-13T06:05:03.120Z,47008
2018-05-13T06:06:03.189Z,48576
2018-05-13T06:07:03.193Z,73472
2018-05-13T06:08:03.238Z,73472
2018-05-13T06:09:03.246Z,53824
2018-05-13T06:10:03.140Z,61504
2018-05-13T06:11:03.246Z,43584
2018-05-13T06:12:03.141Z,50048
2018-05-13T06:13:03.223Z,59456
2018-05-13T06:14:03.181Z,71776
2018-05-13T06:15:03.192Z,72512
2018-05-13T06:16:03.263Z,59808
2018-05-13T06:17:03.194Z,34080
2018-05-13T06:18:03.288Z,28864
2018-05-13T06:19:03.205Z,28544
2018-05-13T06:20:03.232Z,35616
2018-05-13T06:21:03.226Z,28384
2018-05-13T06:22:03.163Z,31776
2018-05-13T06:23:03.161Z,28512
2018-05-13T06:24:03.164Z,28000
2018-05-13T06:25:03.170Z,27872
2018-05-13T06:26:03.232Z,27488
2018-05-13T06:27:03.174Z,28000
2018-05-13T06:28:03.165Z,31808
2018-05-13T06:29:03.238Z,31136
2018-05-13T06:30:03.164Z,38784
2018-05-13T06:31:03.169Z,27616
2018-05-13T06:32:03.157Z,28416
2018-05-13T06:33:03.264Z,28800
2018-05-13T06:34:03.213Z,28672
2018-05-13T06:35:03.145Z,32096
2018-05-13T06:36:03.262Z,35488
2018-05-13T06:37:03.176Z,33792
2018-05-13T06:38:03.204Z,36288
2018-05-13T06:39:03.167Z,39360
2018-05-13T06:40:03.146Z,32960
2018-05-13T06:41:03.269Z,35232
2018-05-13T06:42:03.206Z,44064
2018-05-13T06:43:03.216Z,33952
2018-05-13T06:44:03.286Z,33216
2018-05-13T06:45:03.204Z,33504
2018-05-13T06:46:03.183Z,36544
2018-05-13T06:47:03.220Z,36096
2018-05-13T06:48:03.246Z,49408
2018-05-13T06:49:03.246Z,61664
2018-05-13T06:50:03.208Z,60032
2018-05-13T06:51:03.372Z,69632
2018-05-13T06:52:03.246Z,77632
2018-05-13T06:53:03.247Z,50400
2018-05-13T06:54:03.173Z,74368
2018-05-13T06:55:03.255Z,70368
2018-05-13T06:56:03.208Z,67680
2018-05-13T06:57:03.247Z,63200
2018-05-13T06:58:03.254Z,75424
2018-05-13T06:59:03.221Z,73920
2018-05-13T07:00:03.215Z,68448
2018-05-13T07:01:03.162Z,75360
2018-05-13T07:02:03.182Z,67552
2018-05-13T07:03:03.162Z,60544
2018-05-13T07:04:03.249Z,62592
2018-05-13T07:05:03.269Z,64928
2018-05-13T07:06:03.250Z,72512
2018-05-13T07:07:03.178Z,62496
2018-05-13T07:08:03.180Z,61760
2018-05-13T07:09:03.183Z,61408
2018-05-13T07:10:03.257Z,57088
2018-05-13T07:11:03.248Z,53184
2018-05-13T07:12:03.256Z,60736
2018-05-13T07:13:03.256Z,72352
2018-05-13T07:14:03.191Z,79232
2018-05-13T07:15:03.187Z,86432
2018-05-13T07:16:03.258Z,77056
2018-05-13T07:17:03.185Z,76352
2018-05-13T07:18:03.212Z,69984
2018-05-13T07:19:03.177Z,63648
2018-05-13T07:20:03.264Z,64224
2018-05-13T07:21:03.204Z,65952
2018-05-13T07:22:03.294Z,73568
2018-05-13T07:23:03.229Z,73280
2018-05-13T07:24:03.312Z,68672
2018-05-13T07:25:03.307Z,76480
2018-05-13T07:26:03.169Z,73216
2018-05-13T07:27:03.300Z,66048
2018-05-13T07:28:03.236Z,70720
2018-05-13T07:29:03.244Z,61920
2018-05-13T07:30:03.196Z,55520
2018-05-13T07:31:03.238Z,52960
2018-05-13T07:32:03.273Z,55232
2018-05-13T07:33:03.237Z,56576
2018-05-13T07:34:03.201Z,59616
2018-05-13T07:35:03.275Z,66656
2018-05-13T07:36:03.281Z,77504
2018-05-13T07:37:03.232Z,82432
2018-05-13T07:38:03.338Z,87520
2018-05-13T07:39:03.234Z,90592
2018-05-13T07:40:03.215Z,91296
2018-05-13T07:41:03.279Z,92448
2018-05-13T07:42:03.283Z,92768
2018-05-13T07:43:03.214Z,91808
2018-05-13T07:44:03.282Z,92704
2018-05-13T07:45:03.253Z,94624
2018-05-13T07:46:03.221Z,95424
2018-05-13T07:47:03.250Z,94016
2018-05-13T07:48:03.221Z,93600
2018-05-13T07:49:03.221Z,88416
2018-05-13T07:50:03.231Z,92768
2018-05-13T07:51:03.254Z,90176
2018-05-13T07:52:03.288Z,88800
2018-05-13T07:53:03.221Z,89120
2018-05-13T07:54:03.231Z,92128
2018-05-13T07:55:03.295Z,96320
2018-05-13T07:56:03.289Z,101440
2018-05-13T07:57:03.297Z,105120
2018-05-13T07:58:03.228Z,107552
2018-05-13T07:59:03.301Z,112928
2018-05-13T08:00:03.224Z,114560
2018-05-13T08:01:03.225Z,112736
2018-05-13T08:02:03.316Z,109120
2018-05-13T08:03:03.326Z,104352
2018-05-13T08:04:03.202Z,100768
2018-05-13T08:05:03.221Z,97408
2018-05-13T08:06:03.315Z,95488
2018-05-13T08:07:03.223Z,97696
2018-05-13T08:08:03.202Z,101856
2018-05-13T08:09:03.221Z,107648
2018-05-13T08:10:03.320Z,110368
2018-05-13T08:11:03.330Z,109408
2018-05-13T08:12:03.244Z,108800
2018-05-13T08:13:03.243Z,105728
2018-05-13T08:14:03.307Z,104160
2018-05-13T08:15:03.207Z,101408
2018-05-13T08:16:03.228Z,96512
2018-05-13T08:17:03.188Z,94560
2018-05-13T08:18:03.227Z,95072
2018-05-13T08:19:03.195Z,96544
2018-05-13T08:20:03.177Z,97120
2018-05-13T08:21:03.295Z,99328
2018-05-13T08:22:03.313Z,99200
2018-05-13T08:23:03.237Z,99104
2018-05-13T08:24:03.315Z,96864
2018-05-13T08:25:03.272Z,94240
2018-05-13T08:26:03.309Z,91168
2018-05-13T08:27:03.244Z,89664
2018-05-13T08:28:03.317Z,88000
2018-05-13T08:29:03.325Z,86592
2018-05-13T08:30:03.246Z,89472
2018-05-13T08:31:03.317Z,93536
2018-05-13T08:32:03.246Z,98976
2018-05-13T08:33:03.247Z,101856
2018-05-13T08:34:03.319Z,109248
2018-05-13T08:35:03.254Z,102240
2018-05-13T08:36:03.317Z,99520
2018-05-13T08:37:03.246Z,89536
2018-05-13T08:38:03.250Z,81440
2018-05-13T08:39:03.278Z,73632
2018-05-13T08:40:03.349Z,72256
2018-05-13T08:41:03.253Z,75776
2018-05-13T08:42:03.265Z,82720
2018-05-13T08:43:03.315Z,79968
2018-05-13T08:44:03.220Z,90528
2018-05-13T08:45:03.227Z,96832
2018-05-13T08:46:03.318Z,110240
2018-05-13T08:47:03.311Z,119520
2018-05-13T08:48:03.321Z,120864
2018-05-13T08:49:03.228Z,123360
2018-05-13T08:50:03.215Z,124640
2018-05-13T08:51:03.318Z,127200
2018-05-13T08:52:03.258Z,126976
2018-05-13T08:53:03.312Z,125888
2018-05-13T08:54:03.231Z,118784
2018-05-13T08:55:03.288Z,92384
2018-05-13T08:56:03.215Z,107680
2018-05-13T08:57:03.310Z,107200
2018-05-13T08:58:03.189Z,110016
2018-05-13T08:59:03.192Z,113824
2018-05-13T09:00:03.322Z,117504
2018-05-13T09:01:03.319Z,119296
2018-05-13T09:02:03.273Z,117184
2018-05-13T09:03:03.336Z,113280
2018-05-13T09:04:03.391Z,109728
2018-05-13T09:05:03.234Z,107296
2018-05-13T09:06:03.241Z,105632
2018-05-13T09:07:03.334Z,107456
2018-05-13T09:08:03.299Z,108768
2018-05-13T09:09:03.337Z,99296
2018-05-13T09:10:03.298Z,85664
2018-05-13T09:11:03.312Z,89184
2018-05-13T09:12:03.341Z,85664
2018-05-13T09:13:03.370Z,89216
2018-05-13T09:14:03.475Z,93120
2018-05-13T09:15:03.365Z,90656
2018-05-13T09:16:03.312Z,94592
2018-05-13T09:17:03.266Z,99456
2018-05-13T09:18:03.258Z,105088
2018-05-13T09:19:03.305Z,112384
2018-05-13T09:20:03.306Z,120384
2018-05-13T09:21:03.270Z,124192
2018-05-13T09:22:03.251Z,120896
2018-05-13T09:23:03.367Z,110880
2018-05-13T09:24:03.249Z,103776
2018-05-13T09:25:03.344Z,93728
2018-05-13T09:26:03.369Z,84096
2018-05-13T09:27:03.309Z,79648
2018-05-13T09:28:03.271Z,79840
2018-05-13T09:29:03.388Z,80512
2018-05-13T09:30:03.355Z,83488
2018-05-13T09:31:03.332Z,85120
2018-05-13T09:32:03.288Z,86176
2018-05-13T09:33:03.342Z,83392
2018-05-13T09:34:03.309Z,81216
2018-05-13T09:35:03.425Z,77696
2018-05-13T09:36:03.329Z,76736
2018-05-13T09:37:03.372Z,80960
2018-05-13T09:38:03.321Z,88224
2018-05-13T09:39:03.315Z,95104
2018-05-13T09:40:03.393Z,98336
2018-05-13T09:41:03.318Z,97216
2018-05-13T09:42:03.294Z,94400
2018-05-13T09:43:03.353Z,92896
2018-05-13T09:44:03.342Z,95552
2018-05-13T09:45:03.295Z,103040
2018-05-13T09:46:03.260Z,112160
2018-05-13T09:47:03.281Z,126080
2018-05-13T09:48:03.356Z,140128
2018-05-13T09:49:03.286Z,149856
2018-05-13T09:50:03.268Z,131584
2018-05-13T09:51:03.317Z,117824
2018-05-13T09:52:03.356Z,120640
2018-05-13T09:53:03.229Z,132896
2018-05-13T09:54:03.192Z,135200
2018-05-13T09:55:03.267Z,135168
2018-05-13T09:56:03.287Z,144896
2018-05-13T09:57:03.178Z,149408
2018-05-13T09:58:03.229Z,154656
2018-05-13T09:59:03.183Z,150272
2018-05-13T10:00:03.190Z,148256
2018-05-13T10:01:03.235Z,138944
2018-05-13T10:02:03.299Z,130976
2018-05-13T10:03:03.345Z,109984
2018-05-13T10:04:03.388Z,118048
2018-05-13T10:05:03.275Z,124928
2018-05-13T10:06:03.405Z,119584
2018-05-13T10:07:03.344Z,128288
2018-05-13T10:08:03.335Z,122720
2018-05-13T10:09:03.346Z,134976
2018-05-13T10:10:03.351Z,131008
2018-05-13T10:11:03.336Z,140000
2018-05-13T10:12:03.334Z,140512
2018-05-13T10:13:03.279Z,135968
2018-05-13T10:14:03.394Z,131584
2018-05-13T10:15:03.390Z,128992
2018-05-13T10:16:03.300Z,132896
2018-05-13T10:17:03.413Z,130144
2018-05-13T10:18:03.376Z,136800
2018-05-13T10:19:03.353Z,131040
2018-05-13T10:20:03.416Z,132096
2018-05-13T10:21:03.358Z,147168
2018-05-13T10:22:03.417Z,143712
2018-05-13T10:23:03.403Z,136096
2018-05-13T10:24:03.337Z,142336
2018-05-13T10:25:03.355Z,134336
2018-05-13T10:26:03.413Z,141088
2018-05-13T10:27:03.384Z,140832
2018-05-13T10:28:03.405Z,134688
2018-05-13T10:29:03.419Z,140352
2018-05-13T10:30:03.386Z,137440
2018-05-13T10:31:03.390Z,138272
2018-05-13T10:32:03.417Z,139744
2018-05-13T10:33:03.288Z,141344
2018-05-13T10:34:03.365Z,139264
2018-05-13T10:35:03.355Z,131904
2018-05-13T10:36:03.425Z,136320
2018-05-13T10:37:03.328Z,139264
2018-05-13T10:38:03.313Z,140032
2018-05-13T10:39:03.421Z,133344
2018-05-13T10:40:03.394Z,147264
2018-05-13T10:41:03.468Z,147136
2018-05-13T10:42:03.360Z,151808
2018-05-13T10:43:03.334Z,153184
2018-05-13T10:44:03.399Z,149152
2018-05-13T10:45:03.329Z,156704
2018-05-13T10:46:03.400Z,163040
2018-05-13T10:47:03.399Z,152384
2018-05-13T10:48:03.337Z,155552
2018-05-13T10:49:03.402Z,152640
2018-05-13T10:50:03.398Z,152160
2018-05-13T10:51:03.338Z,159424
2018-05-13T10:52:03.335Z,154528
2018-05-13T10:53:03.303Z,147520
2018-05-13T10:54:03.380Z,146624
2018-05-13T10:55:03.386Z,162272
2018-05-13T10:56:03.430Z,161760
2018-05-13T10:57:03.403Z,155712
2018-05-13T10:58:03.434Z,159360
2018-05-13T10:59:03.363Z,154112
2018-05-13T11:00:03.362Z,153600
2018-05-13T11:01:03.332Z,154624
2018-05-13T11:02:03.440Z,150048
2018-05-13T11:03:03.314Z,148736
2018-05-13T11:04:03.265Z,144672
2018-05-13T11:05:03.355Z,143744
2018-05-13T11:06:03.305Z,127680
2018-05-13T11:07:03.269Z,133088
2018-05-13T11:08:03.309Z,153856
2018-05-13T11:09:03.269Z,148800
2018-05-13T11:10:03.270Z,132352
2018-05-13T11:11:03.336Z,136192
2018-05-13T11:12:03.271Z,138624
2018-05-13T11:13:03.346Z,133568
2018-05-13T11:14:03.309Z,139904
2018-05-13T11:15:03.417Z,151296
2018-05-13T11:16:03.415Z,137888
2018-05-13T11:17:03.352Z,153312
2018-05-13T11:18:03.355Z,153920
2018-05-13T11:19:03.309Z,153600
2018-05-13T11:20:03.354Z,160320
2018-05-13T11:21:03.357Z,154496
2018-05-13T11:22:03.421Z,152800
2018-05-13T11:23:03.392Z,131296
2018-05-13T11:24:03.387Z,145632
2018-05-13T11:25:03.376Z,147392
2018-05-13T11:26:03.426Z,148672
2018-05-13T11:27:03.330Z,147520
2018-05-13T11:28:03.379Z,152384
2018-05-13T11:29:03.459Z,160448
2018-05-13T11:30:03.467Z,54272
2018-05-13T11:31:03.389Z,169472
2018-05-13T11:32:03.386Z,163456
2018-05-13T11:33:03.375Z,155200
2018-05-13T11:34:03.372Z,149632
2018-05-13T11:35:03.376Z,149312
2018-05-13T11:36:03.334Z,87808
2018-05-13T11:37:03.324Z,148512
2018-05-13T11:38:03.378Z,153984
2018-05-13T11:40:03.288Z,147136
2018-05-13T11:41:03.329Z,151328
2018-05-13T11:42:03.386Z,153888
2018-05-13T11:43:03.435Z,152672
2018-05-13T11:44:03.403Z,143136
2018-05-13T11:45:03.412Z,43168
2018-05-13T11:46:03.362Z,37696
2018-05-13T11:47:03.359Z,37728
2018-05-13T11:48:03.436Z,44064
2018-05-13T11:49:03.400Z,159008
2018-05-13T11:50:03.457Z,157088
2018-05-13T11:51:03.413Z,157184
2018-05-13T11:52:03.345Z,156000
2018-05-13T11:53:03.342Z,156128
2018-05-13T11:54:03.476Z,159904
2018-05-13T11:55:03.474Z,156704
2018-05-13T11:56:03.482Z,155808
2018-05-13T11:57:03.470Z,119232
2018-05-13T11:58:03.481Z,156896
2018-05-13T11:59:03.446Z,156224
2018-05-13T12:00:03.463Z,147008
2018-05-13T12:01:03.413Z,144768
2018-05-13T12:02:03.489Z,149600
2018-05-13T12:03:03.446Z,147712
2018-05-13T12:04:03.383Z,153504
2018-05-13T12:05:03.447Z,85728
2018-05-13T12:06:03.383Z,54144
2018-05-13T12:07:03.450Z,148640
2018-05-13T12:08:03.418Z,158656
2018-05-13T12:10:03.463Z,105984
2018-05-13T12:11:03.384Z,56800
2018-05-13T12:12:03.456Z,48416
2018-05-13T12:13:03.483Z,59712
2018-05-13T12:14:03.497Z,103808
2018-05-13T12:15:03.373Z,48000
2018-05-13T12:16:03.362Z,49536
2018-05-13T12:17:03.427Z,146112
2018-05-13T12:18:03.384Z,141920
2018-05-13T12:19:03.434Z,144800
2018-05-13T12:20:03.463Z,141248
2018-05-13T12:21:03.439Z,133024
2018-05-13T12:22:03.440Z,131040
2018-05-13T12:23:03.483Z,129632
2018-05-13T12:24:03.434Z,140000
2018-05-13T12:25:03.489Z,138336
2018-05-13T12:26:03.385Z,135296
2018-05-13T12:27:03.480Z,138816
2018-05-13T12:28:03.368Z,130688
2018-05-13T12:29:03.509Z,122368
2018-05-13T12:30:03.493Z,122272
2018-05-13T12:31:03.431Z,120800
2018-05-13T12:32:03.444Z,49216
2018-05-13T12:33:03.467Z,78528
2018-05-13T12:34:03.406Z,40448
2018-05-13T12:35:03.463Z,38496
2018-05-13T12:36:03.467Z,39360
2018-05-13T12:37:03.399Z,40512
2018-05-13T12:38:03.444Z,49856
2018-05-13T12:39:03.471Z,48640
2018-05-13T12:40:03.432Z,48672
2018-05-13T12:41:03.406Z,80256
2018-05-13T12:42:03.429Z,83968
2018-05-13T12:43:03.451Z,119072
2018-05-13T12:44:03.538Z,61472
2018-05-13T12:45:03.451Z,141600
2018-05-13T12:46:03.401Z,139744
2018-05-13T12:47:03.492Z,151744
2018-05-13T12:48:03.454Z,153760
2018-05-13T12:49:03.476Z,88480
2018-05-13T12:50:03.448Z,143392
2018-05-13T12:51:03.419Z,142496
2018-05-13T12:52:03.398Z,140480
2018-05-13T12:53:03.480Z,128768
2018-05-13T12:54:03.483Z,110816
2018-05-13T12:55:03.442Z,84160
2018-05-13T12:56:03.443Z,147264
2018-05-13T12:57:03.451Z,147392
2018-05-13T12:58:03.520Z,68128
2018-05-13T12:59:03.480Z,116032
2018-05-13T13:00:03.457Z,41312
2018-05-13T13:01:03.388Z,36800
2018-05-13T13:02:03.522Z,35680
2018-05-13T13:03:03.432Z,36896
2018-05-13T13:04:03.435Z,41344
2018-05-13T13:05:03.386Z,38848
2018-05-13T13:06:03.338Z,37760
2018-05-13T13:07:03.339Z,37120
2018-05-13T13:08:03.384Z,36416
2018-05-13T13:09:03.463Z,35392
2018-05-13T13:10:03.347Z,34304
2018-05-13T13:11:03.432Z,33504
2018-05-13T13:12:03.340Z,32576
2018-05-13T13:13:03.425Z,31936
2018-05-13T13:14:03.472Z,32128
2018-05-13T13:15:03.353Z,33216
2018-05-13T13:16:03.472Z,38976
2018-05-13T13:17:03.387Z,57376